createdAt,value
2019-02-08T00:00:51.352Z,0.90
2019-02-08T00:03:38.849Z,0.90
2019-02-08T00:06:26.862Z,0.90
2019-02-08T00:09:14.919Z,0.90
2019-02-08T00:12:02.376Z,0.90
2019-02-08T00:14:50.291Z,0.90
2019-02-08T00:17:38.376Z,0.90
2019-02-08T00:20:25.659Z,1.10
2019-02-08T00:23:13.185Z,1.10
2019-02-08T00:26:00.955Z,1.10
2019-02-08T00:28:48.410Z,1.10
2019-02-08T00:31:35.780Z,1.10
2019-02-08T00:34:23.549Z,1.10
2019-02-08T00:37:11.324Z,1.10
2019-02-08T00:39:59.197Z,1.40
2019-02-08T00:42:46.925Z,1.40
2019-02-08T00:45:35.087Z,1.50
2019-02-08T00:48:22.672Z,1.40
2019-02-08T00:51:10.835Z,1.30
2019-02-08T00:53:58.519Z,1.30
2019-02-08T00:56:46.424Z,1.10
2019-02-08T00:59:34.070Z,1.10
2019-02-08T01:02:21.835Z,1.00
2019-02-08T01:05:11.163Z,1.10
2019-02-08T01:07:58.975Z,1.30
2019-02-08T01:10:46.951Z,1.60
2019-02-08T01:13:34.761Z,1.70
2019-02-08T01:16:22.524Z,2.10
2019-02-08T01:19:11.020Z,2.20
2019-02-08T01:21:58.918Z,2.20
2019-02-08T01:24:46.707Z,2.30
2019-02-08T01:27:34.125Z,2.20
2019-02-08T01:30:23.713Z,2.20
2019-02-08T01:33:11.257Z,2.20
2019-02-08T01:35:59.017Z,2.20
2019-02-08T01:38:46.555Z,2.30
2019-02-08T01:41:34.520Z,2.20
2019-02-08T01:44:21.729Z,2.20
2019-02-08T01:47:09.285Z,2.20
2019-02-08T01:49:57.114Z,2.10
2019-02-08T01:52:44.536Z,2.00
2019-02-08T01:55:32.416Z,2.00
2019-02-08T01:58:20.223Z,1.90
2019-02-08T02:01:08.191Z,2.30
2019-02-08T02:03:56.198Z,2.60
2019-02-08T02:06:43.934Z,2.70
2019-02-08T02:09:31.590Z,2.80
2019-02-08T02:12:18.707Z,2.80
2019-02-08T02:15:07.422Z,2.80
2019-02-08T02:17:54.876Z,2.70
2019-02-08T02:20:43.035Z,2.60
2019-02-08T02:23:30.716Z,2.60
2019-02-08T02:26:18.197Z,2.50
2019-02-08T02:29:05.537Z,2.60
2019-02-08T02:31:53.516Z,2.60
2019-02-08T02:34:41.335Z,2.60
2019-02-08T02:37:29.234Z,2.60
2019-02-08T02:40:17.118Z,2.50
2019-02-08T02:43:05.388Z,2.40
2019-02-08T02:45:53.374Z,2.30
2019-02-08T02:48:41.872Z,2.30
2019-02-08T02:51:29.330Z,2.30
2019-02-08T02:54:16.961Z,2.30
2019-02-08T02:57:05.094Z,2.40
2019-02-08T02:59:52.663Z,2.40
2019-02-08T03:02:40.447Z,2.40
2019-02-08T03:05:30.472Z,2.40
2019-02-08T03:08:18.453Z,2.30
2019-02-08T03:11:06.268Z,2.40
2019-02-08T03:13:53.486Z,2.30
2019-02-08T03:16:41.020Z,2.30
2019-02-08T03:19:29.084Z,2.10
2019-02-08T03:22:16.993Z,2.10
2019-02-08T03:25:05.876Z,2.10
2019-02-08T03:27:53.567Z,2.10
2019-02-08T03:30:56.449Z,2.00
2019-02-08T03:33:44.211Z,1.90
2019-02-08T03:36:31.913Z,1.90
2019-02-08T03:39:19.377Z,1.80
2019-02-08T03:42:07.056Z,1.90
2019-02-08T03:44:55.193Z,1.80
2019-02-08T03:47:43.354Z,1.80
2019-02-08T03:50:31.398Z,1.80
2019-02-08T03:53:18.704Z,1.80
2019-02-08T03:56:06.240Z,1.90
2019-02-08T03:58:53.829Z,1.90
2019-02-08T04:01:41.932Z,1.80
2019-02-08T04:04:30.482Z,1.70
2019-02-08T04:07:18.164Z,1.70
2019-02-08T04:10:08.150Z,1.80
2019-02-08T04:12:56.037Z,1.90
2019-02-08T04:15:43.825Z,1.70
2019-02-08T04:18:31.794Z,1.70
2019-02-08T04:21:21.789Z,1.70
2019-02-08T04:24:09.126Z,1.70
2019-02-08T04:26:57.200Z,1.70
2019-02-08T04:29:44.816Z,1.80
2019-02-08T04:32:32.604Z,1.90
2019-02-08T04:35:21.429Z,2.10
2019-02-08T04:38:09.189Z,2.10
2019-02-08T04:40:57.348Z,2.20
2019-02-08T04:43:45.011Z,2.20
2019-02-08T04:46:32.423Z,2.30
2019-02-08T04:49:19.981Z,2.40
2019-02-08T04:52:08.051Z,2.40
2019-02-08T04:54:55.751Z,2.40
2019-02-08T04:57:43.707Z,2.40
2019-02-08T05:00:33.290Z,2.30
2019-02-08T05:03:21.441Z,2.40
2019-02-08T05:06:09.926Z,2.40
2019-02-08T05:08:58.287Z,2.30
2019-02-08T05:11:46.075Z,2.30
2019-02-08T05:14:33.778Z,2.40
2019-02-08T05:17:21.265Z,2.30
2019-02-08T05:20:10.416Z,2.30
2019-02-08T05:22:57.914Z,2.30
2019-02-08T05:25:45.605Z,2.40
2019-02-08T05:28:33.198Z,2.30
2019-02-08T05:31:20.771Z,2.20
2019-02-08T05:34:08.477Z,2.20
2019-02-08T05:36:56.494Z,2.00
2019-02-08T05:39:45.071Z,1.90
2019-02-08T05:42:32.896Z,1.90
2019-02-08T05:45:20.798Z,1.80
2019-02-08T05:48:08.561Z,1.70
2019-02-08T05:50:56.579Z,1.60
2019-02-08T05:53:44.760Z,1.60
2019-02-08T05:56:32.268Z,1.40
2019-02-08T05:59:20.030Z,1.30
2019-02-08T06:02:08.325Z,1.00
2019-02-08T06:04:56.630Z,0.80
2019-02-08T06:07:44.940Z,0.70
2019-02-08T06:10:32.494Z,0.50
2019-02-08T06:13:20.044Z,0.50
2019-02-08T06:16:07.584Z,0.20
2019-02-08T06:18:55.161Z,0.20
2019-02-08T06:21:42.789Z,0.20
2019-02-08T06:24:30.524Z,0.10
2019-02-08T06:27:17.946Z,0.00
2019-02-08T06:30:07.509Z,-0.10
2019-02-08T06:32:58.207Z,-0.10
2019-02-08T06:35:46.482Z,-0.10
2019-02-08T06:38:34.132Z,-0.30
2019-02-08T06:41:21.508Z,-0.30
2019-02-08T06:44:09.089Z,-0.30
2019-02-08T06:46:57.325Z,-0.30
2019-02-08T06:49:45.037Z,-0.30
2019-02-08T06:52:32.674Z,-0.30
2019-02-08T06:55:21.049Z,-0.40
2019-02-08T06:58:29.597Z,-0.40
2019-02-08T07:01:34.947Z,-0.30
2019-02-08T07:04:39.809Z,-0.20
2019-02-08T07:07:52.936Z,-0.10
2019-02-08T07:10:57.343Z,-0.10
2019-02-08T07:14:03.455Z,0.00
2019-02-08T07:17:15.903Z,-0.10
2019-02-08T07:20:23.163Z,0.00
2019-02-08T07:23:17.705Z,0.00
2019-02-08T07:26:25.608Z,0.00
2019-02-08T07:29:43.666Z,0.10
2019-02-08T07:32:55.649Z,0.20
2019-02-08T07:36:10.432Z,0.40
2019-02-08T07:39:39.516Z,0.50
2019-02-08T07:42:56.556Z,0.70
2019-02-08T07:46:10.817Z,0.90
2019-02-08T07:49:58.471Z,1.10
2019-02-08T07:53:45.730Z,1.30
2019-02-08T07:57:20.570Z,1.80
2019-02-08T08:00:37.921Z,1.90
2019-02-08T08:03:47.070Z,2.20
2019-02-08T08:06:46.214Z,2.70
2019-02-08T08:09:56.909Z,3.00
2019-02-08T08:12:53.360Z,3.00
2019-02-08T08:16:01.001Z,3.50
2019-02-08T08:18:59.758Z,3.80
2019-02-08T08:22:07.751Z,4.10
2019-02-08T08:27:47.409Z,4.50
2019-02-08T08:30:54.097Z,5.00
2019-02-08T08:33:51.410Z,5.20
2019-02-08T08:37:13.751Z,5.60
2019-02-08T08:40:27.102Z,5.80
2019-02-08T08:44:03.968Z,6.00
2019-02-08T08:47:31.604Z,5.90
2019-02-08T08:50:58.033Z,6.00
2019-02-08T08:54:45.510Z,5.60
2019-02-08T08:58:32.759Z,5.70
2019-02-08T09:02:25.455Z,5.80
2019-02-08T09:05:54.751Z,6.20
2019-02-08T09:09:16.770Z,7.00
2019-02-08T09:12:27.031Z,8.00
2019-02-08T09:15:55.764Z,7.70
2019-02-08T09:19:21.140Z,7.60
2019-02-08T09:22:45.422Z,7.60
2019-02-08T09:25:59.824Z,7.70
2019-02-08T09:29:19.595Z,8.80
2019-02-08T09:32:42.745Z,9.60
2019-02-08T09:36:23.109Z,9.10
2019-02-08T09:39:43.875Z,9.40
2019-02-08T09:43:30.603Z,9.40
2019-02-08T09:46:57.244Z,9.50
2019-02-08T09:50:39.865Z,9.10
2019-02-08T09:53:55.450Z,8.70
2019-02-08T09:57:18.625Z,9.60
2019-02-08T10:00:27.632Z,10.10
2019-02-08T10:03:47.029Z,9.70
2019-02-08T10:07:01.402Z,10.40
2019-02-08T10:10:20.561Z,10.30
2019-02-08T10:14:04.545Z,11.00
2019-02-08T10:17:29.277Z,10.70
2019-02-08T10:20:50.985Z,10.40
2019-02-08T10:24:34.925Z,9.80
2019-02-08T10:28:00.508Z,9.50
2019-02-08T10:31:37.947Z,10.00
2019-02-08T10:35:01.094Z,10.10
2019-02-08T10:38:32.609Z,9.50
2019-02-08T10:41:57.216Z,9.60
2019-02-08T10:45:26.586Z,9.60
2019-02-08T10:49:11.019Z,10.70
2019-02-08T10:53:03.987Z,10.80
2019-02-08T10:56:27.997Z,10.90
2019-02-08T10:59:58.291Z,9.90
2019-02-08T11:03:11.128Z,10.00
2019-02-08T11:06:26.727Z,10.00
2019-02-08T11:09:45.302Z,10.50
2019-02-08T11:13:12.584Z,10.60
2019-02-08T11:16:30.226Z,9.80
2019-02-08T11:19:17.081Z,10.60
2019-02-08T11:22:04.685Z,10.50
2019-02-08T11:24:52.624Z,10.70
2019-02-08T11:27:40.399Z,11.20
2019-02-08T11:30:28.250Z,11.60
2019-02-08T11:33:15.842Z,11.90
2019-02-08T11:36:03.319Z,11.40
2019-02-08T11:38:51.172Z,11.50
2019-02-08T11:41:38.795Z,11.20
2019-02-08T11:44:27.037Z,10.40
2019-02-08T11:47:15.567Z,10.30
2019-02-08T11:50:15.247Z,9.70
2019-02-08T11:53:06.768Z,10.10
2019-02-08T11:55:54.597Z,9.70
2019-02-08T11:58:47.238Z,10.00
2019-02-08T12:01:40.867Z,10.10
2019-02-08T12:04:28.701Z,10.70
2019-02-08T12:07:16.332Z,10.70
2019-02-08T12:10:04.806Z,11.10
2019-02-08T12:12:52.722Z,11.30
2019-02-08T12:15:40.177Z,11.70
2019-02-08T12:18:28.340Z,12.30
2019-02-08T12:21:15.573Z,11.10
2019-02-08T12:24:03.268Z,10.50
2019-02-08T12:26:50.987Z,10.30
2019-02-08T12:29:38.830Z,11.20
2019-02-08T12:32:26.932Z,10.90
2019-02-08T12:35:14.466Z,10.90
2019-02-08T12:38:03.201Z,11.20
2019-02-08T12:40:50.861Z,11.10
2019-02-08T12:43:38.565Z,10.90
2019-02-08T12:46:26.376Z,11.20
2019-02-08T12:49:13.657Z,11.30
2019-02-08T12:52:01.640Z,11.40
2019-02-08T12:54:49.092Z,11.00
2019-02-08T12:57:37.766Z,11.20
2019-02-08T13:00:25.847Z,11.10
2019-02-08T13:03:14.035Z,10.70
2019-02-08T13:06:01.738Z,10.70
2019-02-08T13:08:50.169Z,10.70
2019-02-08T13:11:37.937Z,10.80
2019-02-08T13:14:25.830Z,11.00
2019-02-08T13:17:13.301Z,10.90
2019-02-08T13:20:01.909Z,11.10
2019-02-08T13:22:49.766Z,11.30
2019-02-08T13:25:37.274Z,11.50
2019-02-08T13:28:24.953Z,11.80
2019-02-08T13:31:12.588Z,11.80
2019-02-08T13:34:00.205Z,11.50
2019-02-08T13:36:47.855Z,11.50
2019-02-08T13:39:35.621Z,11.30
2019-02-08T13:42:23.163Z,10.80
2019-02-08T13:45:11.512Z,11.10
2019-02-08T13:47:59.526Z,10.70
2019-02-08T13:50:47.249Z,11.10
2019-02-08T13:53:34.866Z,10.90
2019-02-08T13:56:22.386Z,11.10
2019-02-08T13:59:10.303Z,11.30
2019-02-08T14:01:58.304Z,11.50
2019-02-08T14:04:45.758Z,11.90
2019-02-08T14:07:33.219Z,11.90
2019-02-08T14:10:20.454Z,12.10
2019-02-08T14:13:07.980Z,12.10
2019-02-08T14:15:55.422Z,12.40
2019-02-08T14:18:45.046Z,12.60
2019-02-08T14:21:32.210Z,13.00
2019-02-08T14:24:20.024Z,12.90
2019-02-08T14:27:08.776Z,12.90
2019-02-08T14:29:56.388Z,12.90
2019-02-08T14:32:44.331Z,12.60
2019-02-08T14:35:32.175Z,12.70
2019-02-08T14:38:21.604Z,12.20
2019-02-08T14:41:09.105Z,12.10
2019-02-08T14:44:01.432Z,12.10
2019-02-08T14:46:46.420Z,12.20
2019-02-08T14:49:33.615Z,12.50
2019-02-08T14:52:20.807Z,13.10
2019-02-08T14:55:08.194Z,13.20
2019-02-08T14:57:56.590Z,13.20
2019-02-08T15:00:45.305Z,13.10
2019-02-08T15:03:45.679Z,12.90
2019-02-08T15:06:33.509Z,12.80
2019-02-08T15:09:21.256Z,12.80
2019-02-08T15:12:08.751Z,12.80
2019-02-08T15:14:56.133Z,12.70
2019-02-08T15:17:44.268Z,12.40
2019-02-08T15:20:31.786Z,11.90
2019-02-08T15:23:19.272Z,11.60
2019-02-08T15:26:07.316Z,11.30
2019-02-08T15:28:54.620Z,11.00
2019-02-08T15:31:42.487Z,10.80
2019-02-08T15:34:30.284Z,10.60
2019-02-08T15:37:17.916Z,10.40
2019-02-08T15:40:07.285Z,10.30
2019-02-08T15:42:54.797Z,10.00
2019-02-08T15:45:45.127Z,9.70
2019-02-08T15:48:33.112Z,9.50
2019-02-08T15:51:20.915Z,9.30
2019-02-08T15:54:08.349Z,9.20
2019-02-08T15:56:56.373Z,9.00
2019-02-08T15:59:44.110Z,8.90
2019-02-08T16:02:31.732Z,8.70
2019-02-08T16:05:19.342Z,8.50
2019-02-08T16:08:06.937Z,8.40
2019-02-08T16:10:54.639Z,8.30
2019-02-08T16:13:41.815Z,8.20
2019-02-08T16:16:29.905Z,8.00
2019-02-08T16:19:17.768Z,8.00
2019-02-08T16:22:06.265Z,7.90
2019-02-08T16:24:54.216Z,7.70
2019-02-08T16:27:41.948Z,7.60
2019-02-08T16:30:30.342Z,7.50
2019-02-08T16:33:18.108Z,7.40
2019-02-08T16:36:06.484Z,7.30
2019-02-08T16:38:54.190Z,7.20
2019-02-08T16:41:41.357Z,7.10
2019-02-08T16:44:31.053Z,7.10
2019-02-08T16:47:18.341Z,7.10
2019-02-08T16:50:08.204Z,7.00
2019-02-08T16:52:55.981Z,6.90
2019-02-08T16:55:44.412Z,6.90
2019-02-08T16:58:32.138Z,6.80
2019-02-08T17:01:19.808Z,6.80
2019-02-08T17:04:07.925Z,6.80
2019-02-08T17:06:55.602Z,6.60
2019-02-08T17:09:43.270Z,6.70
2019-02-08T17:12:30.909Z,6.60
2019-02-08T17:15:23.042Z,6.50
2019-02-08T17:18:10.929Z,6.40
2019-02-08T17:20:58.741Z,6.40
2019-02-08T17:23:46.558Z,6.40
2019-02-08T17:26:34.020Z,6.40
2019-02-08T17:29:21.853Z,6.30
2019-02-08T17:32:09.313Z,6.30
2019-02-08T17:34:56.813Z,6.20
2019-02-08T17:37:44.812Z,6.20
2019-02-08T17:40:33.237Z,6.20
2019-02-08T17:43:20.909Z,6.30
2019-02-08T17:46:08.673Z,6.20
2019-02-08T17:48:57.046Z,6.20
2019-02-08T17:51:44.566Z,6.10
2019-02-08T17:54:31.960Z,6.00
2019-02-08T17:57:19.787Z,6.00
2019-02-08T18:00:14.734Z,6.00
2019-02-08T18:03:02.258Z,6.00
2019-02-08T18:05:50.232Z,5.90
2019-02-08T18:08:37.717Z,5.70
2019-02-08T18:11:25.111Z,5.60
2019-02-08T18:14:12.946Z,5.50
2019-02-08T18:17:00.192Z,5.60
2019-02-08T18:19:47.934Z,5.40
2019-02-08T18:22:35.533Z,5.50
2019-02-08T18:25:23.329Z,5.40
2019-02-08T18:28:11.423Z,5.20
2019-02-08T18:30:59.369Z,5.10
2019-02-08T18:33:46.902Z,5.00
2019-02-08T18:36:34.252Z,4.90
2019-02-08T18:39:21.514Z,4.70
2019-02-08T18:42:08.746Z,4.70
2019-02-08T18:44:56.340Z,4.60
2019-02-08T18:47:44.019Z,4.50
2019-02-08T18:50:33.852Z,4.40
2019-02-08T18:53:21.400Z,4.20
2019-02-08T18:56:08.829Z,4.10
2019-02-08T18:58:56.428Z,3.90
2019-02-08T19:01:43.764Z,3.80
2019-02-08T19:04:35.037Z,3.80
2019-02-08T19:07:23.540Z,3.60
2019-02-08T19:10:13.511Z,3.50
2019-02-08T19:13:00.913Z,3.40
2019-02-08T19:15:48.465Z,3.30
2019-02-08T19:18:35.635Z,3.30
2019-02-08T19:21:23.189Z,3.10
2019-02-08T19:24:10.261Z,3.00
2019-02-08T19:26:58.908Z,3.00
2019-02-08T19:29:46.694Z,2.90
2019-02-08T19:32:34.113Z,3.00
2019-02-08T19:35:21.911Z,2.90
2019-02-08T19:38:09.795Z,3.00
2019-02-08T19:40:57.357Z,3.00
2019-02-08T19:43:44.867Z,3.00
2019-02-08T19:46:32.622Z,2.90
2019-02-08T19:49:20.274Z,3.00
2019-02-08T19:52:08.056Z,3.00
2019-02-08T19:54:55.709Z,2.90
2019-02-08T19:57:43.490Z,2.80
2019-02-08T20:00:32.586Z,2.60
2019-02-08T20:03:20.320Z,2.60
2019-02-08T20:06:08.184Z,2.60
2019-02-08T20:08:55.918Z,2.70
2019-02-08T20:11:43.859Z,2.70
2019-02-08T20:14:32.066Z,2.60
2019-02-08T20:17:19.307Z,2.60
2019-02-08T20:20:07.885Z,2.50
2019-02-08T20:22:55.926Z,2.50
2019-02-08T20:25:43.729Z,2.50
2019-02-08T20:28:31.500Z,2.70
2019-02-08T20:31:20.729Z,2.70
2019-02-08T20:34:08.491Z,2.80
2019-02-08T20:37:19.544Z,2.80
2019-02-08T20:40:10.137Z,2.80
2019-02-08T20:42:59.324Z,2.80
2019-02-08T20:45:47.161Z,2.80
2019-02-08T20:48:34.834Z,2.90
2019-02-08T20:51:22.658Z,2.90
2019-02-08T20:54:11.902Z,2.80
2019-02-08T20:57:02.799Z,2.70
2019-02-08T20:59:51.136Z,2.70
2019-02-08T21:02:39.623Z,2.60
2019-02-08T21:05:27.418Z,2.50
2019-02-08T21:08:16.847Z,2.40
2019-02-08T21:11:08.121Z,2.40
2019-02-08T21:14:00.141Z,2.40
2019-02-08T21:16:51.347Z,2.30
2019-02-08T21:19:39.128Z,2.30
2019-02-08T21:22:31.949Z,2.10
2019-02-08T21:25:29.487Z,2.20
2019-02-08T21:28:18.782Z,2.20
2019-02-08T21:31:06.262Z,2.20
2019-02-08T21:34:04.376Z,2.10
2019-02-08T21:36:54.469Z,2.00
2019-02-08T21:39:41.671Z,1.90
2019-02-08T21:42:29.481Z,1.90
2019-02-08T21:45:29.964Z,1.90
2019-02-08T21:48:20.748Z,1.90
2019-02-08T21:51:14.193Z,2.00
2019-02-08T21:54:02.054Z,1.90
2019-02-08T21:56:49.567Z,1.90
2019-02-08T21:59:37.040Z,1.90
2019-02-08T22:02:24.956Z,1.90
2019-02-08T22:05:13.062Z,1.90
2019-02-08T22:08:01.201Z,1.80
2019-02-08T22:10:59.824Z,1.70
2019-02-08T22:13:47.754Z,1.70
2019-02-08T22:17:03.136Z,1.60
2019-02-08T22:19:54.564Z,1.60
2019-02-08T22:22:47.928Z,1.40
2019-02-08T22:25:55.483Z,1.40
2019-02-08T22:28:48.566Z,1.30
2019-02-08T22:31:36.504Z,1.20
2019-02-08T22:34:30.095Z,1.20
2019-02-08T22:37:18.336Z,1.00
2019-02-08T22:40:17.017Z,1.00
2019-02-08T22:43:10.281Z,0.90
2019-02-08T22:45:58.619Z,0.90
2019-02-08T22:48:50.518Z,0.90
2019-02-08T22:51:38.380Z,0.90
2019-02-08T22:54:25.888Z,1.10
2019-02-08T22:57:13.403Z,1.20
2019-02-08T23:00:00.798Z,1.20
2019-02-08T23:02:48.754Z,1.10
2019-02-08T23:05:36.543Z,1.00
2019-02-08T23:08:24.083Z,0.90
2019-02-08T23:11:11.480Z,0.60
2019-02-08T23:13:59.011Z,0.60
2019-02-08T23:16:46.192Z,0.50
2019-02-08T23:19:33.872Z,0.40
2019-02-08T23:22:21.376Z,0.40
2019-02-08T23:25:09.431Z,0.30
2019-02-08T23:27:57.304Z,0.30
2019-02-08T23:30:44.840Z,0.40
2019-02-08T23:33:32.375Z,0.30
2019-02-08T23:36:20.051Z,0.20
2019-02-08T23:39:12.890Z,0.40
2019-02-08T23:42:00.610Z,0.30
2019-02-08T23:44:48.325Z,0.30
2019-02-08T23:47:36.050Z,0.30
2019-02-08T23:50:23.878Z,0.30
2019-02-08T23:53:11.111Z,0.50
2019-02-08T23:55:59.180Z,0.30
2019-02-08T23:58:47.133Z,0.20
